sensor_id;sensor_type;location;lat;lon;timestamp;pressure;altitude;pressure_sealevel;temperature;humidity
40788;BME280;26497;52.494;7.546;2023-05-25T00:01:03;101940.34;;;13.02;68.41
40788;BME280;26497;52.494;7.546;2023-05-25T00:03:30;101941.16;;;12.94;68.23
40788;BME280;26497;52.494;7.546;2023-05-25T00:05:58;101943.69;;;12.85;68.31
40788;BME280;26497;52.494;7.546;2023-05-25T00:08:28;101945.44;;;12.83;68.30
40788;BME280;26497;52.494;7.546;2023-05-25T00:10:55;101941.03;;;12.80;68.22
40788;BME280;26497;52.494;7.546;2023-05-25T00:13:22;101940.91;;;12.73;68.15
40788;BME280;26497;52.494;7.546;2023-05-25T00:15:49;101939.06;;;12.65;68.21
40788;BME280;26497;52.494;7.546;2023-05-25T00:18:16;101941.66;;;12.56;68.65
40788;BME280;26497;52.494;7.546;2023-05-25T00:20:43;101945.16;;;12.55;68.47
40788;BME280;26497;52.494;7.546;2023-05-25T00:23:10;101941.53;;;12.47;68.47
40788;BME280;26497;52.494;7.546;2023-05-25T00:25:38;101943.97;;;12.31;68.70
40788;BME280;26497;52.494;7.546;2023-05-25T00:28:05;101940.31;;;12.20;69.02
40788;BME280;26497;52.494;7.546;2023-05-25T00:30:32;101939.41;;;12.18;69.19
40788;BME280;26497;52.494;7.546;2023-05-25T00:32:59;101938.50;;;12.16;69.13
40788;BME280;26497;52.494;7.546;2023-05-25T00:35:27;101946.34;;;12.11;69.30
40788;BME280;26497;52.494;7.546;2023-05-25T00:37:54;101944.47;;;12.02;69.28
40788;BME280;26497;52.494;7.546;2023-05-25T00:40:21;101936.44;;;11.98;69.34
40788;BME280;26497;52.494;7.546;2023-05-25T00:42:50;101929.56;;;12.07;69.36
40788;BME280;26497;52.494;7.546;2023-05-25T00:45:17;101940.22;;;12.14;69.42
40788;BME280;26497;52.494;7.546;2023-05-25T00:47:44;101937.50;;;12.09;69.21
40788;BME280;26497;52.494;7.546;2023-05-25T00:50:16;101934.75;;;12.01;69.44
40788;BME280;26497;52.494;7.546;2023-05-25T00:52:44;101933.78;;;11.98;69.79
40788;BME280;26497;52.494;7.546;2023-05-25T00:55:15;101945.31;;;12.00;70.01
40788;BME280;26497;52.494;7.546;2023-05-25T00:57:46;101937.34;;;11.98;70.29
40788;BME280;26497;52.494;7.546;2023-05-25T01:00:18;101940.09;;;12.04;70.62
40788;BME280;26497;52.494;7.546;2023-05-25T01:02:46;101937.72;;;12.24;70.46
40788;BME280;26497;52.494;7.546;2023-05-25T01:05:17;101932.63;;;12.38;70.44
40788;BME280;26497;52.494;7.546;2023-05-25T01:07:46;101936.25;;;12.48;70.83
40788;BME280;26497;52.494;7.546;2023-05-25T01:10:14;101941.66;;;12.58;71.07
40788;BME280;26497;52.494;7.546;2023-05-25T01:12:43;101941.75;;;12.68;71.42
40788;BME280;26497;52.494;7.546;2023-05-25T01:15:11;101940.09;;;12.75;71.54
40788;BME280;26497;52.494;7.546;2023-05-25T01:17:40;101943.78;;;12.90;71.56
40788;BME280;26497;52.494;7.546;2023-05-25T01:20:09;101943.03;;;13.03;71.32
40788;BME280;26497;52.494;7.546;2023-05-25T01:22:42;101943.94;;;13.07;71.72
40788;BME280;26497;52.494;7.546;2023-05-25T01:25:13;101946.75;;;13.25;71.43
40788;BME280;26497;52.494;7.546;2023-05-25T01:27:50;101940.63;;;13.34;71.63
40788;BME280;26497;52.494;7.546;2023-05-25T01:30:18;101941.66;;;13.49;71.48
40788;BME280;26497;52.494;7.546;2023-05-25T01:32:48;101947.94;;;13.60;71.63
40788;BME280;26497;52.494;7.546;2023-05-25T01:35:16;101953.28;;;13.66;71.93
40788;BME280;26497;52.494;7.546;2023-05-25T01:37:46;101956.88;;;13.73;71.92
40788;BME280;26497;52.494;7.546;2023-05-25T01:40:14;101953.41;;;13.82;71.99
40788;BME280;26497;52.494;7.546;2023-05-25T01:42:41;101957.00;;;13.93;71.99
40788;BME280;26497;52.494;7.546;2023-05-25T01:45:10;101956.16;;;14.02;71.66
40788;BME280;26497;52.494;7.546;2023-05-25T01:47:44;101959.75;;;14.10;71.59
40788;BME280;26497;52.494;7.546;2023-05-25T01:50:38;101962.44;;;14.16;71.79
40788;BME280;26497;52.494;7.546;2023-05-25T01:53:11;101953.66;;;14.30;71.62
40788;BME280;26497;52.494;7.546;2023-05-25T01:55:45;101956.38;;;14.45;71.24
40788;BME280;26497;52.494;7.546;2023-05-25T01:58:14;101961.75;;;14.58;70.72
40788;BME280;26497;52.494;7.546;2023-05-25T02:00:42;101961.75;;;14.61;70.85
40788;BME280;26497;52.494;7.546;2023-05-25T02:03:10;101963.56;;;14.70;70.61
40788;BME280;26497;52.494;7.546;2023-05-25T02:05:40;101961.81;;;14.75;70.69
40788;BME280;26497;52.494;7.546;2023-05-25T02:08:09;101971.59;;;14.85;70.37
40788;BME280;26497;52.494;7.546;2023-05-25T02:10:36;101968.94;;;14.85;70.25
40788;BME280;26497;52.494;7.546;2023-05-25T02:13:03;101960.09;;;14.93;70.35
40788;BME280;26497;52.494;7.546;2023-05-25T02:15:32;101955.69;;;15.04;69.90
40788;BME280;26497;52.494;7.546;2023-05-25T02:17:59;101953.06;;;15.09;69.79
40788;BME280;26497;52.494;7.546;2023-05-25T02:20:26;101949.53;;;15.10;69.67
40788;BME280;26497;52.494;7.546;2023-05-25T02:22:53;101947.75;;;15.12;69.79
40788;BME280;26497;52.494;7.546;2023-05-25T02:25:22;101952.16;;;15.11;70.00
40788;BME280;26497;52.494;7.546;2023-05-25T02:27:49;101951.28;;;15.14;70.03
40788;BME280;26497;52.494;7.546;2023-05-25T02:30:16;101952.19;;;15.24;69.57
40788;BME280;26497;52.494;7.546;2023-05-25T02:32:43;101944.19;;;15.28;69.26
40788;BME280;26497;52.494;7.546;2023-05-25T02:35:10;101946.84;;;15.34;68.85
40788;BME280;26497;52.494;7.546;2023-05-25T02:37:37;101945.97;;;15.28;68.91
40788;BME280;26497;52.494;7.546;2023-05-25T02:40:06;101948.63;;;15.28;69.14
40788;BME280;26497;52.494;7.546;2023-05-25T02:42:35;101956.63;;;15.37;68.67
40788;BME280;26497;52.494;7.546;2023-05-25T02:45:02;101958.38;;;15.38;68.33
40788;BME280;26497;52.494;7.546;2023-05-25T02:47:31;101953.97;;;15.37;68.52
40788;BME280;26497;52.494;7.546;2023-05-25T02:49:58;101952.19;;;15.36;68.61
40788;BME280;26497;52.494;7.546;2023-05-25T02:52:25;101955.72;;;15.37;68.35
40788;BME280;26497;52.494;7.546;2023-05-25T02:54:52;101952.16;;;15.41;68.61
40788;BME280;26497;52.494;7.546;2023-05-25T02:57:19;101958.38;;;15.43;68.38
40788;BME280;26497;52.494;7.546;2023-05-25T02:59:47;101956.59;;;15.45;68.21
40788;BME280;26497;52.494;7.546;2023-05-25T03:02:14;101959.25;;;15.39;68.32
40788;BME280;26497;52.494;7.546;2023-05-25T03:04:43;101955.72;;;15.33;68.53
40788;BME280;26497;52.494;7.546;2023-05-25T03:07:10;101958.38;;;15.33;68.91
40788;BME280;26497;52.494;7.546;2023-05-25T03:09:38;101964.59;;;15.34;68.74
40788;BME280;26497;52.494;7.546;2023-05-25T03:12:05;101961.91;;;15.36;68.96
40788;BME280;26497;52.494;7.546;2023-05-25T03:14:32;101955.72;;;15.37;68.89
40788;BME280;26497;52.494;7.546;2023-05-25T03:17:01;101958.38;;;15.44;68.73
40788;BME280;26497;52.494;7.546;2023-05-25T03:19:27;101959.25;;;15.39;68.49
40788;BME280;26497;52.494;7.546;2023-05-25T03:21:54;101960.13;;;15.25;68.63
40788;BME280;26497;52.494;7.546;2023-05-25T03:24:21;101961.00;;;15.07;68.01
40788;BME280;26497;52.494;7.546;2023-05-25T03:26:48;101966.28;;;14.84;67.93
40788;BME280;26497;52.494;7.546;2023-05-25T03:29:15;101975.00;;;14.55;68.08
40788;BME280;26497;52.494;7.546;2023-05-25T03:31:42;101975.72;;;14.23;68.34
40788;BME280;26497;52.494;7.546;2023-05-25T03:34:11;101983.59;;;14.07;68.80
40788;BME280;26497;52.494;7.546;2023-05-25T03:36:38;101979.09;;;13.91;68.75
40788;BME280;26497;52.494;7.546;2023-05-25T03:39:11;101979.03;;;13.78;68.85
40788;BME280;26497;52.494;7.546;2023-05-25T03:41:38;101984.19;;;13.60;69.18
40788;BME280;26497;52.494;7.546;2023-05-25T03:44:05;101978.78;;;13.47;69.69
40788;BME280;26497;52.494;7.546;2023-05-25T03:46:32;101992.00;;;13.46;69.73
40788;BME280;26497;52.494;7.546;2023-05-25T03:48:58;101991.13;;;13.45;69.95
40788;BME280;26497;52.494;7.546;2023-05-25T03:51:27;101998.22;;;13.49;70.30
40788;BME280;26497;52.494;7.546;2023-05-25T03:53:54;101989.47;;;13.60;70.53
40788;BME280;26497;52.494;7.546;2023-05-25T03:56:21;101985.16;;;13.74;70.55
40788;BME280;26497;52.494;7.546;2023-05-25T03:58:48;101988.78;;;13.87;70.87
40788;BME280;26497;52.494;7.546;2023-05-25T04:01:17;101983.59;;;14.07;70.23
40788;BME280;26497;52.494;7.546;2023-05-25T04:03:44;101968.63;;;14.15;70.28
40788;BME280;26497;52.494;7.546;2023-05-25T04:06:11;101983.72;;;14.29;70.02
40788;BME280;26497;52.494;7.546;2023-05-25T04:08:39;101973.13;;;14.32;70.15
40788;BME280;26497;52.494;7.546;2023-05-25T04:11:06;101980.25;;;14.38;70.26
40788;BME280;26497;52.494;7.546;2023-05-25T04:13:33;101982.03;;;14.43;70.46
40788;BME280;26497;52.494;7.546;2023-05-25T04:16:01;101992.66;;;14.47;70.65
40788;BME280;26497;52.494;7.546;2023-05-25T04:18:28;101989.13;;;14.48;71.02
40788;BME280;26497;52.494;7.546;2023-05-25T04:20:55;101986.53;;;14.60;71.56
40788;BME280;26497;52.494;7.546;2023-05-25T04:23:22;101990.25;;;15.09;74.21
40788;BME280;26497;52.494;7.546;2023-05-25T04:25:50;101993.81;;;15.79;76.11
40788;BME280;26497;52.494;7.546;2023-05-25T04:28:18;101985.63;;;16.61;75.36
40788;BME280;26497;52.494;7.546;2023-05-25T04:30:45;101988.75;;;17.35;74.08
40788;BME280;26497;52.494;7.546;2023-05-25T04:33:12;101978.28;;;18.15;71.25
40788;BME280;26497;52.494;7.546;2023-05-25T04:35:39;101983.59;;;18.88;68.04
40788;BME280;26497;52.494;7.546;2023-05-25T04:38:06;101996.81;;;19.57;63.95
40788;BME280;26497;52.494;7.546;2023-05-25T04:40:33;101994.66;;;20.29;62.21
40788;BME280;26497;52.494;7.546;2023-05-25T04:43:01;101993.19;;;20.98;60.73
40788;BME280;26497;52.494;7.546;2023-05-25T04:45:29;101995.63;;;21.46;56.98
40788;BME280;26497;52.494;7.546;2023-05-25T04:47:57;101999.25;;;21.82;53.93
40788;BME280;26497;52.494;7.546;2023-05-25T04:50:26;102005.16;;;22.28;50.77
40788;BME280;26497;52.494;7.546;2023-05-25T04:52:53;102004.25;;;22.89;49.96
40788;BME280;26497;52.494;7.546;2023-05-25T04:55:20;101999.13;;;23.38;47.91
40788;BME280;26497;52.494;7.546;2023-05-25T04:57:47;101994.16;;;23.79;45.63
40788;BME280;26497;52.494;7.546;2023-05-25T05:00:17;102004.00;;;23.53;45.79
40788;BME280;26497;52.494;7.546;2023-05-25T05:02:45;102000.72;;;22.88;45.86
40788;BME280;26497;52.494;7.546;2023-05-25T05:05:12;102003.66;;;22.17;46.91
40788;BME280;26497;52.494;7.546;2023-05-25T05:07:39;102014.41;;;21.46;49.20
40788;BME280;26497;52.494;7.546;2023-05-25T05:10:07;102022.28;;;20.75;49.40
40788;BME280;26497;52.494;7.546;2023-05-25T05:12:34;102032.16;;;20.29;51.97
40788;BME280;26497;52.494;7.546;2023-05-25T05:15:01;102034.66;;;19.87;52.22
40788;BME280;26497;52.494;7.546;2023-05-25T05:17:30;102027.84;;;19.67;54.66
40788;BME280;26497;52.494;7.546;2023-05-25T05:19:57;102031.78;;;19.44;56.19
40788;BME280;26497;52.494;7.546;2023-05-25T05:22:24;102038.31;;;19.26;57.85
40788;BME280;26497;52.494;7.546;2023-05-25T05:24:51;102039.41;;;19.14;58.26
40788;BME280;26497;52.494;7.546;2023-05-25T05:27:18;102038.59;;;19.09;59.09
40788;BME280;26497;52.494;7.546;2023-05-25T05:29:45;102040.41;;;19.06;59.89
40788;BME280;26497;52.494;7.546;2023-05-25T05:32:12;102045.06;;;18.88;58.77
40788;BME280;26497;52.494;7.546;2023-05-25T05:34:41;102037.34;;;18.63;59.23
40788;BME280;26497;52.494;7.546;2023-05-25T05:37:08;102040.22;;;18.48;58.43
40788;BME280;26497;52.494;7.546;2023-05-25T05:39:36;102045.59;;;18.43;59.39
40788;BME280;26497;52.494;7.546;2023-05-25T05:42:03;102044.63;;;18.50;59.44
40788;BME280;26497;52.494;7.546;2023-05-25T05:44:30;102052.41;;;18.72;59.48
40788;BME280;26497;52.494;7.546;2023-05-25T05:46:58;102050.19;;;19.08;59.23
40788;BME280;26497;52.494;7.546;2023-05-25T05:49:25;102056.94;;;19.33;57.48
40788;BME280;26497;52.494;7.546;2023-05-25T05:51:54;102060.22;;;19.52;57.05
40788;BME280;26497;52.494;7.546;2023-05-25T05:54:21;102072.53;;;19.62;55.65
40788;BME280;26497;52.494;7.546;2023-05-25T05:56:48;102071.63;;;19.63;55.78
40788;BME280;26497;52.494;7.546;2023-05-25T05:59:15;102074.44;;;19.55;54.61
40788;BME280;26497;52.494;7.546;2023-05-25T06:01:42;102079.94;;;19.44;53.79
40788;BME280;26497;52.494;7.546;2023-05-25T06:04:09;102078.00;;;19.56;54.40
40788;BME280;26497;52.494;7.546;2023-05-25T06:06:36;102066.97;;;19.76;54.24
40788;BME280;26497;52.494;7.546;2023-05-25T06:09:06;102072.03;;;19.95;53.75
40788;BME280;26497;52.494;7.546;2023-05-25T06:11:35;102074.66;;;19.99;52.99
40788;BME280;26497;52.494;7.546;2023-05-25T06:14:04;102078.13;;;20.04;52.30
40788;BME280;26497;52.494;7.546;2023-05-25T06:16:32;102084.19;;;20.14;50.48
40788;BME280;26497;52.494;7.546;2023-05-25T06:18:59;102091.47;;;20.08;50.59
40788;BME280;26497;52.494;7.546;2023-05-25T06:21:26;102092.53;;;19.97;50.05
40788;BME280;26497;52.494;7.546;2023-05-25T06:23:54;102088.44;;;19.73;51.14
40788;BME280;26497;52.494;7.546;2023-05-25T06:26:24;102088.91;;;19.42;51.72
40788;BME280;26497;52.494;7.546;2023-05-25T06:28:51;102097.81;;;19.42;51.93
40788;BME280;26497;52.494;7.546;2023-05-25T06:31:18;102095.09;;;19.45;51.50
40788;BME280;26497;52.494;7.546;2023-05-25T06:33:45;102095.81;;;19.57;52.16
40788;BME280;26497;52.494;7.546;2023-05-25T06:36:12;102089.22;;;19.81;51.11
40788;BME280;26497;52.494;7.546;2023-05-25T06:38:39;102097.63;;;20.13;50.36
40788;BME280;26497;52.494;7.546;2023-05-25T06:41:06;102098.56;;;20.57;48.08
40788;BME280;26497;52.494;7.546;2023-05-25T06:43:35;102090.06;;;20.35;46.99
40788;BME280;26497;52.494;7.546;2023-05-25T06:46:02;102095.00;;;20.57;47.78
40788;BME280;26497;52.494;7.546;2023-05-25T06:48:29;102090.19;;;21.58;47.02
40788;BME280;26497;52.494;7.546;2023-05-25T06:50:56;102097.03;;;22.41;44.54
40788;BME280;26497;52.494;7.546;2023-05-25T06:53:23;102099.91;;;23.58;41.36
40788;BME280;26497;52.494;7.546;2023-05-25T06:55:50;102106.72;;;24.74;39.08
40788;BME280;26497;52.494;7.546;2023-05-25T06:58:17;102100.19;;;24.80;37.00
40788;BME280;26497;52.494;7.546;2023-05-25T07:00:46;102113.00;;;24.24;38.36
40788;BME280;26497;52.494;7.546;2023-05-25T07:03:13;102109.22;;;23.17;39.46
40788;BME280;26497;52.494;7.546;2023-05-25T07:05:40;102113.91;;;22.13;41.55
40788;BME280;26497;52.494;7.546;2023-05-25T07:08:07;102117.16;;;21.51;42.94
40788;BME280;26497;52.494;7.546;2023-05-25T07:10:34;102118.63;;;21.26;43.71
40788;BME280;26497;52.494;7.546;2023-05-25T07:13:01;102118.56;;;20.86;44.60
40788;BME280;26497;52.494;7.546;2023-05-25T07:15:28;102115.25;;;20.72;45.33
40788;BME280;26497;52.494;7.546;2023-05-25T07:17:56;102126.53;;;20.42;46.15
40788;BME280;26497;52.494;7.546;2023-05-25T07:20:23;102128.25;;;20.48;46.90
40788;BME280;26497;52.494;7.546;2023-05-25T07:22:50;102133.00;;;20.79;46.75
40788;BME280;26497;52.494;7.546;2023-05-25T07:25:18;102130.75;;;21.03;45.54
40788;BME280;26497;52.494;7.546;2023-05-25T07:27:47;102132.25;;;21.16;45.67
40788;BME280;26497;52.494;7.546;2023-05-25T07:30:15;102138.78;;;21.45;44.74
40788;BME280;26497;52.494;7.546;2023-05-25T07:32:42;102135.19;;;21.86;44.83
40788;BME280;26497;52.494;7.546;2023-05-25T07:35:10;102135.78;;;21.97;43.12
40788;BME280;26497;52.494;7.546;2023-05-25T07:37:37;102135.97;;;21.50;43.71
40788;BME280;26497;52.494;7.546;2023-05-25T07:40:06;102150.16;;;21.16;44.25
40788;BME280;26497;52.494;7.546;2023-05-25T07:42:33;102142.81;;;20.82;44.54
40788;BME280;26497;52.494;7.546;2023-05-25T07:45:00;102154.75;;;21.11;43.00
40788;BME280;26497;52.494;7.546;2023-05-25T07:47:27;102149.03;;;22.39;41.45
40788;BME280;26497;52.494;7.546;2023-05-25T07:49:54;102143.75;;;23.90;38.28
40788;BME280;26497;52.494;7.546;2023-05-25T07:52:23;102136.47;;;25.42;34.61
40788;BME280;26497;52.494;7.546;2023-05-25T07:54:50;102141.19;;;27.27;32.63
40788;BME280;26497;52.494;7.546;2023-05-25T07:57:17;102141.22;;;28.70;29.84
40788;BME280;26497;52.494;7.546;2023-05-25T07:59:44;102142.63;;;29.27;28.63
40788;BME280;26497;52.494;7.546;2023-05-25T08:02:11;102149.13;;;29.09;27.32
40788;BME280;26497;52.494;7.546;2023-05-25T08:04:38;102146.84;;;27.78;29.54
40788;BME280;26497;52.494;7.546;2023-05-25T08:07:07;102152.53;;;27.35;30.17
40788;BME280;26497;52.494;7.546;2023-05-25T08:09:35;102151.00;;;27.10;30.67
40788;BME280;26497;52.494;7.546;2023-05-25T08:12:03;102153.16;;;26.62;31.05
40788;BME280;26497;52.494;7.546;2023-05-25T08:14:30;102151.94;;;26.90;30.22
40788;BME280;26497;52.494;7.546;2023-05-25T08:16:57;102148.53;;;28.17;28.91
40788;BME280;26497;52.494;7.546;2023-05-25T08:19:24;102156.13;;;29.77;26.71
40788;BME280;26497;52.494;7.546;2023-05-25T08:21:51;102157.13;;;30.68;25.28
40788;BME280;26497;52.494;7.546;2023-05-25T08:24:18;102146.84;;;31.71;24.62
40788;BME280;26497;52.494;7.546;2023-05-25T08:26:46;102140.94;;;32.45;24.06
40788;BME280;26497;52.494;7.546;2023-05-25T08:29:13;102151.44;;;31.98;23.58
40788;BME280;26497;52.494;7.546;2023-05-25T08:31:41;102150.47;;;30.57;25.09
40788;BME280;26497;52.494;7.546;2023-05-25T08:34:09;102151.78;;;30.36;25.30
40788;BME280;26497;52.494;7.546;2023-05-25T08:36:37;102156.16;;;30.83;24.94
40788;BME280;26497;52.494;7.546;2023-05-25T08:39:05;102148.53;;;31.17;24.75
40788;BME280;26497;52.494;7.546;2023-05-25T08:41:35;102145.31;;;31.40;23.78
40788;BME280;26497;52.494;7.546;2023-05-25T08:44:03;102143.31;;;31.84;23.50
40788;BME280;26497;52.494;7.546;2023-05-25T08:46:32;102147.59;;;32.80;22.79
40788;BME280;26497;52.494;7.546;2023-05-25T08:49:07;102151.56;;;33.39;22.32
40788;BME280;26497;52.494;7.546;2023-05-25T08:51:36;102147.31;;;32.85;22.32
40788;BME280;26497;52.494;7.546;2023-05-25T08:54:09;102152.56;;;31.54;22.86
40788;BME280;26497;52.494;7.546;2023-05-25T08:56:47;102154.50;;;30.36;23.97
40788;BME280;26497;52.494;7.546;2023-05-25T08:59:27;102160.91;;;28.92;25.78
40788;BME280;26497;52.494;7.546;2023-05-25T09:02:08;102163.44;;;28.44;26.38
40788;BME280;26497;52.494;7.546;2023-05-25T09:04:42;102163.56;;;28.76;26.72
40788;BME280;26497;52.494;7.546;2023-05-25T09:07:09;102161.03;;;29.22;27.47
40788;BME280;26497;52.494;7.546;2023-05-25T09:09:37;102153.31;;;28.98;26.19
40788;BME280;26497;52.494;7.546;2023-05-25T09:12:08;102165.75;;;28.34;26.92
40788;BME280;26497;52.494;7.546;2023-05-25T09:14:36;102167.28;;;27.48;27.48
40788;BME280;26497;52.494;7.546;2023-05-25T09:17:13;102164.66;;;26.67;29.00
40788;BME280;26497;52.494;7.546;2023-05-25T09:19:40;102169.06;;;26.28;30.28
40788;BME280;26497;52.494;7.546;2023-05-25T09:22:08;102161.97;;;25.81;29.86
40788;BME280;26497;52.494;7.546;2023-05-25T09:24:36;102170.50;;;25.24;31.36
40788;BME280;26497;52.494;7.546;2023-05-25T09:27:08;102166.88;;;26.37;30.93
40788;BME280;26497;52.494;7.546;2023-05-25T09:29:38;102157.47;;;28.00;28.56
40788;BME280;26497;52.494;7.546;2023-05-25T09:32:05;102169.28;;;29.21;26.55
40788;BME280;26497;52.494;7.546;2023-05-25T09:34:33;102158.31;;;30.33;25.55
40788;BME280;26497;52.494;7.546;2023-05-25T09:37:00;102156.00;;;30.11;24.45
40788;BME280;26497;52.494;7.546;2023-05-25T09:39:29;102164.88;;;29.98;24.94
40788;BME280;26497;52.494;7.546;2023-05-25T09:41:56;102162.66;;;29.58;25.26
40788;BME280;26497;52.494;7.546;2023-05-25T09:44:23;102167.56;;;29.02;26.23
40788;BME280;26497;52.494;7.546;2023-05-25T09:46:51;102168.38;;;28.35;26.51
40788;BME280;26497;52.494;7.546;2023-05-25T09:49:18;102172.00;;;27.62;27.70
40788;BME280;26497;52.494;7.546;2023-05-25T09:51:47;102167.56;;;28.16;27.29
40788;BME280;26497;52.494;7.546;2023-05-25T09:54:15;102167.22;;;29.58;25.36
40788;BME280;26497;52.494;7.546;2023-05-25T09:56:41;102168.50;;;30.89;24.74
40788;BME280;26497;52.494;7.546;2023-05-25T09:59:10;102152.63;;;31.25;22.63
40788;BME280;26497;52.494;7.546;2023-05-25T10:01:37;102159.84;;;30.82;24.44
40788;BME280;26497;52.494;7.546;2023-05-25T10:04:05;102164.53;;;30.50;24.25
40788;BME280;26497;52.494;7.546;2023-05-25T10:06:32;102167.75;;;29.95;24.25
40788;BME280;26497;52.494;7.546;2023-05-25T10:09:00;102170.59;;;29.94;24.67
40788;BME280;26497;52.494;7.546;2023-05-25T10:11:28;102172.22;;;29.50;25.16
40788;BME280;26497;52.494;7.546;2023-05-25T10:13:56;102168.66;;;29.32;25.09
40788;BME280;26497;52.494;7.546;2023-05-25T10:16:30;102174.56;;;28.90;25.52
40788;BME280;26497;52.494;7.546;2023-05-25T10:19:05;102174.69;;;28.36;26.46
40788;BME280;26497;52.494;7.546;2023-05-25T10:21:33;102178.13;;;27.85;26.79
40788;BME280;26497;52.494;7.546;2023-05-25T10:24:05;102168.63;;;27.57;27.88
40788;BME280;26497;52.494;7.546;2023-05-25T10:26:39;102183.53;;;27.48;28.59
40788;BME280;26497;52.494;7.546;2023-05-25T10:29:08;102180.13;;;27.62;27.00
40788;BME280;26497;52.494;7.546;2023-05-25T10:31:37;102181.97;;;27.99;27.28
40788;BME280;26497;52.494;7.546;2023-05-25T10:34:06;102181.06;;;28.17;26.97
40788;BME280;26497;52.494;7.546;2023-05-25T10:36:33;102178.16;;;28.03;26.43
40788;BME280;26497;52.494;7.546;2023-05-25T10:39:01;102177.84;;;28.09;26.83
40788;BME280;26497;52.494;7.546;2023-05-25T10:41:28;102185.94;;;27.91;25.70
40788;BME280;26497;52.494;7.546;2023-05-25T10:43:55;102179.47;;;27.57;26.32
40788;BME280;26497;52.494;7.546;2023-05-25T10:46:23;102182.78;;;27.64;27.16
40788;BME280;26497;52.494;7.546;2023-05-25T10:48:50;102183.28;;;27.90;25.89
40788;BME280;26497;52.494;7.546;2023-05-25T10:51:20;102181.59;;;27.70;27.15
40788;BME280;26497;52.494;7.546;2023-05-25T10:53:58;102178.81;;;27.52;27.51
40788;BME280;26497;52.494;7.546;2023-05-25T10:56:26;102182.94;;;27.61;26.41
40788;BME280;26497;52.494;7.546;2023-05-25T10:58:53;102178.56;;;27.76;26.69
40788;BME280;26497;52.494;7.546;2023-05-25T11:01:22;102177.72;;;28.30;27.06
40788;BME280;26497;52.494;7.546;2023-05-25T11:03:56;102174.13;;;28.47;26.69
40788;BME280;26497;52.494;7.546;2023-05-25T11:07:03;102174.94;;;27.94;26.74
40788;BME280;26497;52.494;7.546;2023-05-25T11:09:32;102175.41;;;27.47;26.68
40788;BME280;26497;52.494;7.546;2023-05-25T11:12:02;102168.78;;;27.54;28.00
40788;BME280;26497;52.494;7.546;2023-05-25T11:14:32;102175.22;;;27.71;26.54
40788;BME280;26497;52.494;7.546;2023-05-25T11:17:06;102175.97;;;27.74;26.45
40788;BME280;26497;52.494;7.546;2023-05-25T11:19:42;102172.59;;;27.69;27.09
40788;BME280;26497;52.494;7.546;2023-05-25T11:22:14;102175.81;;;28.14;26.50
40788;BME280;26497;52.494;7.546;2023-05-25T11:24:42;102164.91;;;28.67;25.55
40788;BME280;26497;52.494;7.546;2023-05-25T11:27:10;102168.22;;;29.23;24.81
40788;BME280;26497;52.494;7.546;2023-05-25T11:29:38;102159.19;;;29.87;24.31
40788;BME280;26497;52.494;7.546;2023-05-25T11:32:11;102154.66;;;30.18;24.53
40788;BME280;26497;52.494;7.546;2023-05-25T11:34:39;102156.25;;;30.37;24.03
40788;BME280;26497;52.494;7.546;2023-05-25T11:37:14;102165.50;;;30.04;25.32
40788;BME280;26497;52.494;7.546;2023-05-25T11:39:45;102150.63;;;29.79;25.71
40788;BME280;26497;52.494;7.546;2023-05-25T11:42:14;102149.34;;;30.00;24.56
40788;BME280;26497;52.494;7.546;2023-05-25T11:44:41;102154.56;;;31.23;22.59
40788;BME280;26497;52.494;7.546;2023-05-25T11:47:09;102141.13;;;31.76;22.17
40788;BME280;26497;52.494;7.546;2023-05-25T11:49:39;102144.75;;;31.62;21.65
40788;BME280;26497;52.494;7.546;2023-05-25T11:52:08;102139.81;;;30.98;21.62
40788;BME280;26497;52.494;7.546;2023-05-25T11:54:37;102138.69;;;30.42;22.81
40788;BME280;26497;52.494;7.546;2023-05-25T11:57:13;102138.41;;;31.19;23.38
40788;BME280;26497;52.494;7.546;2023-05-25T11:59:46;102140.94;;;31.23;23.15
40788;BME280;26497;52.494;7.546;2023-05-25T12:02:14;102143.78;;;30.63;23.60
40788;BME280;26497;52.494;7.546;2023-05-25T12:04:52;102138.56;;;29.83;23.83
40788;BME280;26497;52.494;7.546;2023-05-25T12:07:19;102145.59;;;30.03;23.53
40788;BME280;26497;52.494;7.546;2023-05-25T12:09:48;102140.91;;;29.75;23.92
40788;BME280;26497;52.494;7.546;2023-05-25T12:12:15;102134.91;;;30.45;23.41
40788;BME280;26497;52.494;7.546;2023-05-25T12:14:46;102137.88;;;32.37;21.33
40788;BME280;26497;52.494;7.546;2023-05-25T12:17:13;102127.91;;;33.01;20.72
40788;BME280;26497;52.494;7.546;2023-05-25T12:19:41;102130.34;;;33.30;19.93
40788;BME280;26497;52.494;7.546;2023-05-25T12:22:08;102125.44;;;32.59;21.11
40788;BME280;26497;52.494;7.546;2023-05-25T12:24:35;102130.84;;;32.20;21.30
40788;BME280;26497;52.494;7.546;2023-05-25T12:27:15;102129.75;;;33.50;19.49
40788;BME280;26497;52.494;7.546;2023-05-25T12:29:45;102118.56;;;34.14;19.54
40788;BME280;26497;52.494;7.546;2023-05-25T12:32:12;102124.84;;;33.91;19.34
40788;BME280;26497;52.494;7.546;2023-05-25T12:34:40;102124.78;;;33.80;18.47
40788;BME280;26497;52.494;7.546;2023-05-25T12:37:17;102118.78;;;32.89;19.41
40788;BME280;26497;52.494;7.546;2023-05-25T12:39:47;102114.84;;;32.93;19.75
40788;BME280;26497;52.494;7.546;2023-05-25T12:42:17;102107.81;;;32.76;20.50
40788;BME280;26497;52.494;7.546;2023-05-25T12:44:44;102118.78;;;32.63;20.10
40788;BME280;26497;52.494;7.546;2023-05-25T12:47:14;102113.78;;;31.36;20.93
40788;BME280;26497;52.494;7.546;2023-05-25T12:49:42;102116.75;;;30.45;21.77
40788;BME280;26497;52.494;7.546;2023-05-25T12:52:10;102112.88;;;30.64;21.74
40788;BME280;26497;52.494;7.546;2023-05-25T12:54:56;102103.78;;;31.22;21.10
40788;BME280;26497;52.494;7.546;2023-05-25T12:57:34;102111.72;;;32.07;19.89